createdAt,value
2022-10-13T00:01:19.910Z,9.26
2022-10-13T00:03:48.757Z,9.33
2022-10-13T00:06:20.750Z,9.27
2022-10-13T00:08:50.860Z,9.26
2022-10-13T00:11:22.130Z,9.16
2022-10-13T00:13:54.029Z,9.37
2022-10-13T00:16:23.727Z,9.30
2022-10-13T00:18:52.251Z,9.34
2022-10-13T00:21:22.223Z,9.27
2022-10-13T00:23:50.832Z,9.35
2022-10-13T00:26:22.099Z,9.29
2022-10-13T00:28:52.748Z,9.28
2022-10-13T00:31:23.028Z,9.35
2022-10-13T00:33:53.212Z,9.38
2022-10-13T00:36:22.977Z,9.37
2022-10-13T00:38:51.386Z,9.26
2022-10-13T00:41:21.325Z,9.38
2022-10-13T00:43:57.540Z,9.32
2022-10-13T00:46:27.258Z,9.35
2022-10-13T00:48:59.239Z,9.35
2022-10-13T00:51:30.884Z,9.20
2022-10-13T00:53:59.700Z,9.22
2022-10-13T00:56:34.917Z,9.14
2022-10-13T00:59:04.102Z,9.09
2022-10-13T01:01:36.118Z,9.14
2022-10-13T01:04:04.443Z,9.05
2022-10-13T01:06:32.551Z,9.14
2022-10-13T01:09:00.720Z,9.15
2022-10-13T01:11:51.166Z,9.06
2022-10-13T01:14:31.610Z,9.07
2022-10-13T01:17:07.591Z,8.97
2022-10-13T01:19:57.302Z,8.92
2022-10-13T01:22:43.332Z,8.79
2022-10-13T01:25:27.105Z,8.89
2022-10-13T01:28:28.431Z,8.85
2022-10-13T01:31:06.804Z,8.89
2022-10-13T01:33:43.214Z,8.86
2022-10-13T01:36:23.905Z,8.86
2022-10-13T01:39:02.380Z,8.81
2022-10-13T01:41:36.287Z,8.76
2022-10-13T01:44:10.174Z,8.81
2022-10-13T01:46:40.701Z,8.83
2022-10-13T01:49:11.959Z,8.84
2022-10-13T01:51:41.109Z,8.91
2022-10-13T01:54:09.115Z,8.91
2022-10-13T01:56:37.019Z,8.94
2022-10-13T01:59:09.006Z,8.90
2022-10-13T02:01:53.846Z,8.94
2022-10-13T02:04:30.814Z,8.88
2022-10-13T02:07:08.154Z,8.82
2022-10-13T02:09:44.785Z,8.81
2022-10-13T02:12:20.684Z,8.81
2022-10-13T02:14:50.709Z,8.77
2022-10-13T02:17:20.751Z,8.83
2022-10-13T02:19:48.781Z,8.82
2022-10-13T02:22:18.853Z,8.83
2022-10-13T02:24:47.081Z,8.85
2022-10-13T02:27:15.256Z,8.80
2022-10-13T02:29:51.631Z,8.88
2022-10-13T02:32:21.360Z,8.67
2022-10-13T02:34:49.505Z,8.67
2022-10-13T02:37:17.485Z,8.70
2022-10-13T02:39:45.407Z,8.58
2022-10-13T02:42:13.305Z,8.53
2022-10-13T02:44:41.333Z,8.40
2022-10-13T02:47:09.222Z,8.46
2022-10-13T02:49:38.482Z,8.32
2022-10-13T02:52:06.390Z,8.18
2022-10-13T02:54:34.419Z,8.25
2022-10-13T02:57:02.837Z,8.23
2022-10-13T02:59:30.832Z,8.13
2022-10-13T03:01:58.788Z,8.07
2022-10-13T03:04:26.787Z,8.10
2022-10-13T03:06:56.127Z,8.18
2022-10-13T03:09:24.118Z,8.17
2022-10-13T03:11:52.113Z,8.19
2022-10-13T03:14:20.277Z,8.20
2022-10-13T03:16:48.307Z,8.13
2022-10-13T03:19:16.313Z,8.18
2022-10-13T03:21:44.317Z,8.08
2022-10-13T03:24:13.618Z,8.15
2022-10-13T03:26:41.648Z,8.10
2022-10-13T03:29:13.017Z,8.11
2022-10-13T03:31:44.312Z,8.14
2022-10-13T03:34:14.334Z,8.19
2022-10-13T03:36:42.316Z,8.21
2022-10-13T03:39:20.096Z,8.15
2022-10-13T03:41:48.093Z,8.18
2022-10-13T03:44:16.025Z,8.23
2022-10-13T03:46:44.689Z,8.13
2022-10-13T03:49:13.084Z,8.15
2022-10-13T03:51:41.361Z,8.21
2022-10-13T03:54:12.067Z,8.16
2022-10-13T03:56:42.473Z,8.21
2022-10-13T03:59:13.709Z,8.14
2022-10-13T04:01:41.635Z,8.37
2022-10-13T04:04:12.520Z,8.22
2022-10-13T04:06:40.432Z,8.30
2022-10-13T04:09:09.803Z,8.39
2022-10-13T04:11:37.770Z,8.24
2022-10-13T04:14:07.597Z,8.30
2022-10-13T04:16:35.525Z,8.28
2022-10-13T04:19:06.238Z,8.28
2022-10-13T04:21:36.104Z,8.28
2022-10-13T04:24:05.367Z,8.19
2022-10-13T04:26:35.671Z,8.25
2022-10-13T04:29:04.838Z,8.28
2022-10-13T04:31:34.172Z,8.26
2022-10-13T04:34:02.089Z,8.25
2022-10-13T04:36:30.080Z,8.26
2022-10-13T04:38:58.154Z,8.16
2022-10-13T04:41:27.086Z,8.17
2022-10-13T04:43:55.598Z,8.19
2022-10-13T04:46:25.918Z,8.28
2022-10-13T04:48:58.562Z,8.31
2022-10-13T04:51:27.678Z,8.29
2022-10-13T04:53:57.051Z,8.40
2022-10-13T04:56:25.721Z,8.40
2022-10-13T04:58:54.006Z,8.30
2022-10-13T05:01:24.564Z,8.32
2022-10-13T05:03:53.587Z,8.34
2022-10-13T05:06:25.664Z,8.32
2022-10-13T05:08:53.765Z,8.40
2022-10-13T05:11:21.715Z,8.33
2022-10-13T05:13:49.985Z,8.38
2022-10-13T05:16:20.070Z,8.41
2022-10-13T05:18:48.506Z,8.43
2022-10-13T05:21:19.053Z,8.40
2022-10-13T05:23:48.569Z,8.51
2022-10-13T05:26:18.185Z,8.38
2022-10-13T05:28:46.688Z,8.34
2022-10-13T05:31:17.413Z,8.29
2022-10-13T05:33:46.651Z,8.28
2022-10-13T05:36:17.520Z,8.32
2022-10-13T05:38:46.062Z,8.42
2022-10-13T05:41:16.355Z,8.44
2022-10-13T05:43:44.678Z,8.56
2022-10-13T05:46:12.755Z,8.48
2022-10-13T05:48:41.140Z,8.62
2022-10-13T05:51:14.243Z,8.65
2022-10-13T05:53:50.293Z,8.75
2022-10-13T05:56:24.930Z,8.75
2022-10-13T05:58:57.078Z,8.79
2022-10-13T06:01:27.582Z,8.88
2022-10-13T06:04:00.271Z,8.88
2022-10-13T06:06:31.496Z,8.85
2022-10-13T06:09:00.135Z,8.98
2022-10-13T06:11:29.519Z,8.95
2022-10-13T06:13:57.576Z,8.99
2022-10-13T06:16:25.596Z,9.08
2022-10-13T06:18:53.541Z,9.16
2022-10-13T06:21:21.483Z,9.33
2022-10-13T06:23:49.503Z,9.32
2022-10-13T06:26:17.490Z,9.47
2022-10-13T06:28:50.149Z,9.51
2022-10-13T06:31:22.005Z,9.62
2022-10-13T06:33:49.965Z,9.63
2022-10-13T06:36:18.332Z,9.72
2022-10-13T06:38:47.061Z,9.79
2022-10-13T06:41:15.235Z,9.91
2022-10-13T06:43:43.407Z,10.00
2022-10-13T06:46:13.812Z,9.95
2022-10-13T06:48:41.998Z,10.12
2022-10-13T06:51:12.456Z,10.15
2022-10-13T06:53:40.419Z,10.22
2022-10-13T06:56:14.500Z,10.29
2022-10-13T06:58:42.492Z,10.39
2022-10-13T07:01:15.123Z,10.46
2022-10-13T07:03:43.215Z,10.45
2022-10-13T07:06:11.345Z,10.50
2022-10-13T07:08:39.302Z,10.49
2022-10-13T07:11:12.937Z,10.57
2022-10-13T07:13:46.432Z,10.68
2022-10-13T07:16:17.213Z,10.63
2022-10-13T07:18:45.380Z,10.77
2022-10-13T07:21:13.432Z,10.88
2022-10-13T07:23:41.772Z,10.88
2022-10-13T07:26:11.162Z,10.98
2022-10-13T07:28:39.618Z,11.03
2022-10-13T07:31:11.998Z,11.15
2022-10-13T07:33:42.205Z,11.16
2022-10-13T07:36:10.964Z,11.27
2022-10-13T07:38:39.247Z,11.23
2022-10-13T07:41:09.330Z,11.45
2022-10-13T07:43:37.653Z,11.51
2022-10-13T07:46:05.961Z,11.57
2022-10-13T07:48:35.114Z,11.71
2022-10-13T07:51:07.332Z,11.84
2022-10-13T07:53:36.255Z,11.75
2022-10-13T07:56:07.681Z,11.94
2022-10-13T07:58:38.433Z,11.98
2022-10-13T08:01:07.299Z,12.06
2022-10-13T08:06:11.301Z,12.18
2022-10-13T08:08:40.389Z,12.33
2022-10-13T08:11:12.414Z,12.36
2022-10-13T08:13:43.991Z,12.35
2022-10-13T08:16:11.973Z,12.39
2022-10-13T08:18:39.908Z,12.49
2022-10-13T08:24:02.059Z,12.88
2022-10-13T08:26:30.636Z,13.04
2022-10-13T08:29:16.804Z,13.15
2022-10-13T08:31:46.645Z,13.01
2022-10-13T08:34:14.880Z,13.33
2022-10-13T08:36:44.718Z,13.62
2022-10-13T08:39:15.091Z,13.87
2022-10-13T08:41:45.178Z,13.90
2022-10-13T08:47:16.636Z,13.75
2022-10-13T08:49:46.303Z,13.95
2022-10-13T08:52:21.148Z,13.99
2022-10-13T08:54:49.521Z,14.13
2022-10-13T08:57:18.012Z,14.16
2022-10-13T08:59:46.366Z,13.65
2022-10-13T09:02:16.289Z,13.92
2022-10-13T09:04:49.378Z,14.06
2022-10-13T09:07:23.258Z,14.13
2022-10-13T09:09:52.937Z,14.42
2022-10-13T09:12:24.342Z,14.55
2022-10-13T09:15:01.370Z,14.54
2022-10-13T09:17:30.887Z,14.86
2022-10-13T09:20:01.932Z,15.06
2022-10-13T09:22:33.957Z,15.23
2022-10-13T09:25:17.150Z,15.28
2022-10-13T09:27:48.101Z,15.51
2022-10-13T09:30:33.366Z,16.01
2022-10-13T09:33:18.572Z,16.22
2022-10-13T09:35:48.663Z,16.57
2022-10-13T09:38:19.951Z,17.27
2022-10-13T09:40:59.555Z,17.58
2022-10-13T09:43:31.923Z,17.84
2022-10-13T09:46:02.129Z,18.09
2022-10-13T09:48:34.056Z,18.58
2022-10-13T09:51:02.866Z,18.77
2022-10-13T09:53:35.542Z,19.36
2022-10-13T09:56:18.437Z,19.43
2022-10-13T09:58:51.873Z,19.35
2022-10-13T10:01:28.844Z,19.62
2022-10-13T10:03:58.663Z,19.67
2022-10-13T10:06:28.034Z,19.47
2022-10-13T10:09:04.246Z,19.77
2022-10-13T10:11:38.766Z,20.09
2022-10-13T10:14:16.957Z,20.45
2022-10-13T10:16:51.755Z,20.50
2022-10-13T10:19:27.124Z,20.66
2022-10-13T10:22:04.324Z,20.77
2022-10-13T10:24:42.474Z,21.26
2022-10-13T10:27:17.468Z,21.16
2022-10-13T10:29:50.582Z,20.92
2022-10-13T10:32:30.343Z,20.95
2022-10-13T10:35:05.297Z,20.49
2022-10-13T10:37:52.269Z,20.32
2022-10-13T10:40:32.824Z,20.23
2022-10-13T10:43:30.643Z,20.44
2022-10-13T10:46:00.818Z,20.98
2022-10-13T10:48:33.859Z,21.39
2022-10-13T10:51:02.954Z,21.76
2022-10-13T10:53:38.617Z,21.73
2022-10-13T10:56:19.544Z,21.60
2022-10-13T10:58:54.927Z,21.82
2022-10-13T11:01:33.367Z,21.81
2022-10-13T11:06:42.917Z,22.11
2022-10-13T11:09:12.649Z,22.00
2022-10-13T11:11:43.333Z,21.70
2022-10-13T11:14:34.623Z,21.72
2022-10-13T11:17:29.833Z,21.69
2022-10-13T11:19:58.844Z,21.51
2022-10-13T11:22:27.909Z,21.55
2022-10-13T11:25:01.753Z,21.49
2022-10-13T11:27:46.376Z,21.40
2022-10-13T11:30:50.199Z,21.27
2022-10-13T11:33:52.316Z,21.64
2022-10-13T11:36:49.275Z,21.67
2022-10-13T11:39:50.156Z,21.85
2022-10-13T11:42:39.711Z,22.04
2022-10-13T11:45:24.526Z,22.20
2022-10-13T11:48:11.787Z,22.09
2022-10-13T11:50:49.592Z,22.19
2022-10-13T11:53:19.484Z,22.44
2022-10-13T11:55:51.527Z,22.08
2022-10-13T11:58:22.001Z,22.32
2022-10-13T12:00:57.392Z,22.09
2022-10-13T12:03:29.836Z,21.97
2022-10-13T12:06:01.876Z,21.58
2022-10-13T12:08:32.011Z,21.28
2022-10-13T12:11:03.009Z,21.43
2022-10-13T12:13:32.829Z,21.67
2022-10-13T12:16:06.177Z,21.80
2022-10-13T12:18:36.184Z,22.26
2022-10-13T12:21:10.836Z,22.76
2022-10-13T12:23:39.198Z,22.95
2022-10-13T12:26:07.557Z,23.40
2022-10-13T12:28:52.250Z,23.49
2022-10-13T12:31:24.037Z,23.09
2022-10-13T12:33:56.872Z,23.23
2022-10-13T12:36:30.265Z,23.33
2022-10-13T12:39:02.080Z,23.26
2022-10-13T12:41:32.942Z,23.41
2022-10-13T12:44:04.040Z,23.44
2022-10-13T12:46:40.636Z,23.63
2022-10-13T12:49:13.884Z,23.99
2022-10-13T12:51:42.752Z,23.97
2022-10-13T12:54:19.772Z,23.77
2022-10-13T12:56:50.212Z,23.65
2022-10-13T12:59:20.990Z,23.53
2022-10-13T13:01:56.878Z,23.23
2022-10-13T13:04:41.202Z,23.09
2022-10-13T13:07:30.254Z,22.90
2022-10-13T13:10:15.188Z,22.47
2022-10-13T13:12:44.432Z,22.68
2022-10-13T13:15:22.953Z,22.45
2022-10-13T13:17:58.146Z,22.29
2022-10-13T13:20:29.787Z,22.20
2022-10-13T13:22:58.179Z,21.94
2022-10-13T13:25:26.584Z,21.83
2022-10-13T13:27:54.856Z,21.63
2022-10-13T13:30:24.589Z,21.65
2022-10-13T13:32:54.019Z,21.06
2022-10-13T13:35:22.103Z,20.56
2022-10-13T13:37:53.125Z,20.38
2022-10-13T13:40:25.265Z,19.72
2022-10-13T13:42:53.586Z,20.01
2022-10-13T13:45:23.021Z,20.02
2022-10-13T13:47:51.075Z,20.02
2022-10-13T13:50:23.886Z,20.17
2022-10-13T13:52:51.954Z,20.08
2022-10-13T13:55:19.942Z,19.86
2022-10-13T13:57:47.990Z,19.70
2022-10-13T14:00:18.657Z,19.68
2022-10-13T14:02:46.669Z,19.70
2022-10-13T14:05:17.027Z,19.57
2022-10-13T14:07:46.393Z,19.09
2022-10-13T14:10:14.466Z,19.04
2022-10-13T14:12:42.678Z,18.75
2022-10-13T14:15:11.940Z,18.79
2022-10-13T14:17:39.910Z,18.51
2022-10-13T14:20:08.866Z,18.50
2022-10-13T14:22:38.525Z,18.42
2022-10-13T14:25:09.003Z,18.58
2022-10-13T14:27:37.117Z,18.72
2022-10-13T14:30:05.810Z,18.71
2022-10-13T14:32:33.956Z,18.70
2022-10-13T14:35:02.112Z,18.84
2022-10-13T14:37:33.316Z,18.95
2022-10-13T14:40:01.915Z,19.03
2022-10-13T14:42:31.456Z,19.03
2022-10-13T14:44:59.598Z,19.05
2022-10-13T14:47:27.893Z,19.00
2022-10-13T14:49:55.858Z,19.09
2022-10-13T14:52:23.814Z,19.14
2022-10-13T14:54:51.842Z,19.13
2022-10-13T14:57:20.188Z,18.97
2022-10-13T14:59:49.603Z,18.73
2022-10-13T15:02:17.625Z,18.46
2022-10-13T15:04:45.616Z,18.36
2022-10-13T15:07:13.619Z,18.23
2022-10-13T15:09:52.767Z,18.03
2022-10-13T15:12:29.541Z,18.06
2022-10-13T15:14:58.980Z,17.97
2022-10-13T15:17:28.019Z,17.89
2022-10-13T15:19:56.434Z,17.82
2022-10-13T15:22:24.756Z,17.69
2022-10-13T15:24:52.732Z,17.62
2022-10-13T15:27:20.766Z,17.65
2022-10-13T15:29:48.731Z,17.67
2022-10-13T15:32:20.343Z,17.58
2022-10-13T15:34:49.157Z,17.55
2022-10-13T15:37:17.187Z,17.45
2022-10-13T15:39:45.141Z,17.44
2022-10-13T15:42:13.591Z,17.35
2022-10-13T15:47:31.131Z,17.25
2022-10-13T15:49:59.568Z,17.18
2022-10-13T15:52:32.222Z,17.18
2022-10-13T15:55:02.996Z,17.10
2022-10-13T15:57:31.917Z,17.00
2022-10-13T15:59:59.890Z,16.99
2022-10-13T16:02:27.999Z,17.01
2022-10-13T16:04:58.289Z,17.02
2022-10-13T16:07:29.041Z,17.07
2022-10-13T16:09:57.228Z,17.06
2022-10-13T16:12:25.410Z,16.97
2022-10-13T16:14:53.563Z,16.96
2022-10-13T16:17:21.626Z,16.90
2022-10-13T16:19:49.983Z,16.90
2022-10-13T16:22:20.002Z,16.86
2022-10-13T16:24:48.343Z,16.89
2022-10-13T16:27:16.310Z,16.89
2022-10-13T16:29:44.325Z,16.93
2022-10-13T16:32:20.805Z,16.98
2022-10-13T16:34:49.113Z,16.92
2022-10-13T16:37:17.066Z,16.92
2022-10-13T16:39:51.181Z,16.89
2022-10-13T16:42:19.814Z,16.89
2022-10-13T16:44:47.812Z,16.96
2022-10-13T16:47:18.454Z,16.93
2022-10-13T16:49:48.268Z,16.89
2022-10-13T16:52:16.397Z,16.91
2022-10-13T16:54:44.309Z,16.75
2022-10-13T16:57:13.808Z,16.65
2022-10-13T16:59:42.272Z,16.63
2022-10-13T17:14:10.940Z,16.40
2022-10-13T17:16:38.984Z,16.18
2022-10-13T17:19:07.291Z,16.16
2022-10-13T17:21:35.219Z,16.09
2022-10-13T17:24:03.109Z,16.07
2022-10-13T17:26:31.589Z,16.01
2022-10-13T17:28:59.615Z,15.96
2022-10-13T17:31:28.937Z,15.83
2022-10-13T17:33:56.907Z,15.82
2022-10-13T17:36:27.046Z,15.71
2022-10-13T17:38:56.195Z,15.61
2022-10-13T17:41:24.840Z,15.56
2022-10-13T17:43:53.276Z,15.56
2022-10-13T17:46:39.405Z,15.51
2022-10-13T17:49:14.604Z,15.52
2022-10-13T17:51:43.803Z,15.51
2022-10-13T17:54:16.065Z,15.42
2022-10-13T17:56:45.328Z,15.43
2022-10-13T17:59:13.582Z,15.34
2022-10-13T18:01:42.769Z,15.25
2022-10-13T18:04:16.157Z,15.20
2022-10-13T18:06:47.190Z,15.20
2022-10-13T18:09:18.356Z,15.13
2022-10-13T18:11:52.551Z,14.93
2022-10-13T18:14:33.417Z,14.61
2022-10-13T18:17:01.895Z,14.77
2022-10-13T18:19:31.216Z,14.76
2022-10-13T18:21:59.172Z,14.70
2022-10-13T18:24:38.651Z,14.64
2022-10-13T18:27:06.587Z,14.67
2022-10-13T18:29:34.517Z,14.66
2022-10-13T18:32:02.438Z,14.59
2022-10-13T18:34:31.916Z,14.64
2022-10-13T18:37:11.001Z,14.60
2022-10-13T18:39:38.956Z,14.70
2022-10-13T18:42:10.157Z,14.48
2022-10-13T18:44:39.856Z,14.59
2022-10-13T18:47:12.257Z,14.57
2022-10-13T18:49:41.682Z,14.59
2022-10-13T18:52:12.234Z,14.54
2022-10-13T18:54:40.311Z,14.55
2022-10-13T18:57:08.293Z,14.59
2022-10-13T18:59:38.735Z,14.52
2022-10-13T19:02:06.701Z,14.46
2022-10-13T19:04:36.732Z,14.49
2022-10-13T19:07:05.955Z,14.45
2022-10-13T19:09:33.911Z,14.41
2022-10-13T19:12:01.801Z,14.31
2022-10-13T19:14:30.607Z,14.29
2022-10-13T19:17:02.029Z,14.25
2022-10-13T19:19:30.355Z,14.16
2022-10-13T19:21:58.517Z,14.11
2022-10-13T19:24:29.192Z,13.97
2022-10-13T19:27:05.743Z,13.99
2022-10-13T19:29:34.260Z,13.93
2022-10-13T19:32:02.159Z,13.97
2022-10-13T19:34:30.295Z,14.01
2022-10-13T19:37:00.118Z,14.03
2022-10-13T19:39:30.076Z,14.03
2022-10-13T19:42:10.867Z,14.02
2022-10-13T19:44:38.752Z,14.04
2022-10-13T19:47:06.671Z,14.03
2022-10-13T19:49:34.576Z,14.01
2022-10-13T19:52:02.491Z,13.93
2022-10-13T19:54:34.861Z,13.89
2022-10-13T19:57:03.318Z,13.92
2022-10-13T19:59:31.192Z,13.83
2022-10-13T20:01:59.224Z,13.83
2022-10-13T20:04:27.139Z,13.87
2022-10-13T20:06:55.175Z,13.93
2022-10-13T20:09:23.306Z,13.93
2022-10-13T20:11:52.701Z,13.93
2022-10-13T20:14:21.069Z,13.93
2022-10-13T20:16:49.576Z,13.82
2022-10-13T20:19:19.574Z,13.83
2022-10-13T20:21:52.810Z,13.78
2022-10-13T20:24:21.637Z,13.78
2022-10-13T20:26:50.157Z,13.79
2022-10-13T20:29:19.430Z,13.78
2022-10-13T20:31:47.511Z,13.78
2022-10-13T20:34:15.390Z,13.73
2022-10-13T20:36:43.273Z,13.68
2022-10-13T20:39:11.212Z,13.68
2022-10-13T20:41:40.874Z,13.62
2022-10-13T20:44:10.870Z,13.61
2022-10-13T20:46:40.256Z,13.64
2022-10-13T20:49:12.232Z,13.58
2022-10-13T20:51:41.691Z,13.60
2022-10-13T20:54:10.389Z,13.59
2022-10-13T20:56:39.503Z,13.48
2022-10-13T20:59:09.562Z,13.46
2022-10-13T21:01:37.947Z,13.42
2022-10-13T21:04:07.507Z,13.43
2022-10-13T21:06:36.217Z,13.42
2022-10-13T21:09:05.812Z,13.36
2022-10-13T21:11:33.995Z,13.34
2022-10-13T21:14:06.318Z,13.45
2022-10-13T21:16:34.687Z,13.46
2022-10-13T21:19:02.769Z,13.44
2022-10-13T21:21:33.776Z,13.36
2022-10-13T21:24:03.773Z,13.31
2022-10-13T21:26:32.953Z,13.26
2022-10-13T21:29:02.240Z,13.19
2022-10-13T21:31:31.213Z,13.12
2022-10-13T21:33:59.234Z,13.14
2022-10-13T21:36:28.916Z,13.15
2022-10-13T21:39:00.285Z,13.08
2022-10-13T21:41:29.680Z,13.09
2022-10-13T21:43:57.602Z,13.13
2022-10-13T21:46:27.045Z,13.05
2022-10-13T21:48:56.583Z,13.02
2022-10-13T21:51:26.352Z,13.06
2022-10-13T21:53:56.244Z,13.01
2022-10-13T21:56:26.761Z,13.02
2022-10-13T21:58:56.043Z,12.94
2022-10-13T22:01:24.776Z,13.05
2022-10-13T22:03:56.285Z,13.14
2022-10-13T22:06:25.052Z,12.96
2022-10-13T22:08:54.566Z,13.00
2022-10-13T22:11:23.727Z,13.03
2022-10-13T22:13:53.280Z,12.99
2022-10-13T22:16:23.679Z,13.04
2022-10-13T22:18:53.163Z,12.99
2022-10-13T22:21:22.455Z,13.00
2022-10-13T22:23:50.588Z,13.00
2022-10-13T22:26:20.092Z,13.04
2022-10-13T22:28:51.513Z,13.05
2022-10-13T22:31:20.867Z,13.07
2022-10-13T22:33:48.943Z,13.06
2022-10-13T22:36:18.926Z,13.00
2022-10-13T22:38:48.675Z,13.03
2022-10-13T22:41:17.716Z,13.04
2022-10-13T22:43:47.955Z,13.03
2022-10-13T22:46:17.499Z,12.86
2022-10-13T22:48:46.815Z,12.89
2022-10-13T22:51:16.551Z,12.91
2022-10-13T22:53:44.861Z,12.89
2022-10-13T22:56:15.014Z,12.87
2022-10-13T22:58:44.271Z,12.88
2022-10-13T23:01:13.899Z,12.90
2022-10-13T23:03:42.140Z,12.93
2022-10-13T23:06:14.709Z,12.98
2022-10-13T23:08:42.619Z,12.99
2022-10-13T23:11:11.068Z,13.03
2022-10-13T23:13:39.062Z,13.03
2022-10-13T23:16:09.421Z,12.98
2022-10-13T23:18:37.305Z,13.11
2022-10-13T23:21:06.676Z,13.12
2022-10-13T23:23:36.174Z,13.12
2022-10-13T23:26:05.515Z,13.17
2022-10-13T23:28:33.920Z,13.15
2022-10-13T23:31:02.499Z,13.13
2022-10-13T23:33:31.275Z,13.15
2022-10-13T23:36:00.754Z,13.18
2022-10-13T23:38:29.749Z,13.13
2022-10-13T23:41:03.981Z,13.24
2022-10-13T23:43:31.901Z,13.09
2022-10-13T23:46:00.011Z,13.00
2022-10-13T23:48:28.574Z,13.07
2022-10-13T23:50:57.001Z,13.02
2022-10-13T23:53:24.946Z,12.90
2022-10-13T23:55:52.834Z,12.92
2022-10-13T23:58:22.061Z,12.92
